createdAt,value
2018-07-16T00:01:56.022Z,2.27
2018-07-16T00:06:59.159Z,1.80
2018-07-16T00:12:02.284Z,1.77
2018-07-16T00:17:05.410Z,1.87
2018-07-16T00:22:08.549Z,1.87
2018-07-16T00:27:11.701Z,2.10
2018-07-16T00:32:14.826Z,1.70
2018-07-16T00:37:17.937Z,1.87
2018-07-16T00:42:21.164Z,2.03
2018-07-16T00:47:24.362Z,1.83
2018-07-16T00:52:27.498Z,1.90
2018-07-16T00:57:30.710Z,1.90
2018-07-16T01:02:33.806Z,2.00
2018-07-16T01:07:37.062Z,1.83
2018-07-16T01:12:40.231Z,1.70
2018-07-16T01:17:43.319Z,2.00
2018-07-16T01:22:46.566Z,1.63
2018-07-16T01:27:49.697Z,1.90
2018-07-16T01:32:52.826Z,2.10
2018-07-16T01:37:55.982Z,2.03
2018-07-16T01:42:59.178Z,2.00
2018-07-16T01:48:02.372Z,2.07
2018-07-16T01:53:05.509Z,2.33
2018-07-16T01:58:08.621Z,1.70
2018-07-16T02:03:11.757Z,1.80
2018-07-16T02:08:14.866Z,2.17
2018-07-16T02:13:18.031Z,2.20
2018-07-16T02:18:21.245Z,2.23
2018-07-16T02:23:24.374Z,1.93
2018-07-16T02:28:27.516Z,2.00
2018-07-16T02:33:30.622Z,2.00
2018-07-16T02:38:33.754Z,2.30
2018-07-16T02:43:36.894Z,1.83
2018-07-16T02:48:40.020Z,2.33
2018-07-16T02:53:43.146Z,2.03
2018-07-16T02:58:46.302Z,2.50
2018-07-16T03:03:49.422Z,2.30
2018-07-16T03:08:52.610Z,2.57
2018-07-16T03:13:55.730Z,2.40
2018-07-16T03:18:58.847Z,2.13
2018-07-16T03:24:02.032Z,2.53
2018-07-16T03:29:05.161Z,2.70
2018-07-16T03:34:08.270Z,3.20
2018-07-16T03:39:11.414Z,2.50
2018-07-16T03:44:14.542Z,2.60
2018-07-16T03:49:17.677Z,2.70
2018-07-16T03:54:20.838Z,2.83
2018-07-16T03:59:23.962Z,2.57
2018-07-16T04:04:27.089Z,2.63
2018-07-16T04:09:30.233Z,3.20
2018-07-16T04:14:33.367Z,3.40
2018-07-16T04:19:36.514Z,2.87
2018-07-16T04:24:39.636Z,2.87
2018-07-16T04:29:42.766Z,4.10
2018-07-16T04:34:45.965Z,4.03
2018-07-16T04:39:49.089Z,3.80
2018-07-16T04:44:52.219Z,4.67
2018-07-16T04:49:55.350Z,4.73
2018-07-16T04:54:59.282Z,4.73
2018-07-16T05:00:02.406Z,6.47
2018-07-16T05:05:05.547Z,6.30
2018-07-16T05:10:08.701Z,7.27
2018-07-16T05:15:11.838Z,7.43
2018-07-16T05:20:14.961Z,7.87
2018-07-16T05:25:18.197Z,7.47
2018-07-16T05:30:21.355Z,8.10
2018-07-16T05:35:24.486Z,7.80
2018-07-16T05:40:27.610Z,8.47
2018-07-16T05:45:30.735Z,7.97
2018-07-16T05:50:33.892Z,7.90
2018-07-16T05:55:37.021Z,9.33
2018-07-16T06:00:40.174Z,10.37
2018-07-16T06:05:43.301Z,9.47
2018-07-16T06:10:46.482Z,8.23
2018-07-16T06:15:49.618Z,6.87
2018-07-16T06:20:52.810Z,6.70
2018-07-16T06:25:55.950Z,5.37
2018-07-16T06:30:59.124Z,5.43
2018-07-16T06:36:02.251Z,4.13
2018-07-16T06:41:05.834Z,4.60
2018-07-16T06:46:08.514Z,4.97
2018-07-16T06:51:11.652Z,4.43
2018-07-16T06:56:14.842Z,4.97
2018-07-16T07:01:17.990Z,5.63
2018-07-16T07:06:21.256Z,5.93
2018-07-16T07:11:24.418Z,4.53
2018-07-16T07:16:27.671Z,5.17
2018-07-16T07:21:30.866Z,4.60
2018-07-16T07:26:33.990Z,2.97
2018-07-16T07:31:37.194Z,2.80
2018-07-16T07:36:40.364Z,2.17
2018-07-16T07:41:43.502Z,3.50
2018-07-16T07:46:46.724Z,2.43
2018-07-16T07:51:49.926Z,1.80
2018-07-16T07:56:53.118Z,2.47
2018-07-16T08:01:56.258Z,2.13
2018-07-16T08:07:18.175Z,1.93
2018-07-16T08:12:21.417Z,1.57
2018-07-16T08:17:24.658Z,2.40
2018-07-16T08:22:27.769Z,2.17
2018-07-16T08:27:30.869Z,2.03
2018-07-16T08:32:34.006Z,2.13
2018-07-16T08:37:38.018Z,1.90
2018-07-16T08:42:41.575Z,2.00
2018-07-16T08:47:44.794Z,2.10
2018-07-16T08:52:49.322Z,2.17
2018-07-16T08:57:52.890Z,1.60
2018-07-16T09:02:56.878Z,2.17
2018-07-16T09:08:00.033Z,1.67
2018-07-16T09:13:03.186Z,1.50
2018-07-16T09:18:06.386Z,1.40
2018-07-16T09:23:09.944Z,1.60
2018-07-16T09:28:13.236Z,4.50
2018-07-16T09:33:16.842Z,1.83
2018-07-16T09:38:20.063Z,1.80
2018-07-16T09:43:23.210Z,1.33
2018-07-16T09:48:26.477Z,1.20
2018-07-16T09:53:29.705Z,1.60
2018-07-16T09:58:32.902Z,1.57
2018-07-16T10:03:36.176Z,1.80
2018-07-16T10:08:39.427Z,1.60
2018-07-16T10:13:42.643Z,1.07
2018-07-16T10:18:45.851Z,1.37
2018-07-16T10:23:49.035Z,1.17
2018-07-16T10:28:52.224Z,1.43
2018-07-16T10:33:55.468Z,1.53
2018-07-16T10:38:58.647Z,1.30
2018-07-16T10:44:01.783Z,1.00
2018-07-16T10:49:05.084Z,1.03
2018-07-16T10:54:08.220Z,1.10
2018-07-16T10:59:12.782Z,0.90
2018-07-16T11:04:15.926Z,0.97
2018-07-16T11:09:19.074Z,1.20
2018-07-16T11:14:22.248Z,1.00
2018-07-16T11:19:25.528Z,1.00
2018-07-16T11:24:28.678Z,1.00
2018-07-16T11:29:31.874Z,0.93
2018-07-16T11:34:35.066Z,0.83
2018-07-16T11:39:38.199Z,0.80
2018-07-16T11:44:41.367Z,1.03
2018-07-16T11:49:44.527Z,0.87
2018-07-16T11:54:47.772Z,0.80
2018-07-16T11:59:51.032Z,0.83
2018-07-16T12:04:54.102Z,0.80
2018-07-16T12:09:57.257Z,0.67
2018-07-16T12:15:01.522Z,0.73
2018-07-16T12:20:04.779Z,1.13
2018-07-16T12:25:07.979Z,0.67
2018-07-16T12:30:11.126Z,0.90
2018-07-16T12:35:14.397Z,1.23
2018-07-16T12:40:17.731Z,0.87
2018-07-16T12:45:20.920Z,0.93
2018-07-16T12:50:24.074Z,1.07
2018-07-16T12:55:27.324Z,0.90
2018-07-16T13:00:32.761Z,0.80
2018-07-16T13:05:35.942Z,0.80
2018-07-16T13:10:42.790Z,1.10
2018-07-16T13:15:49.409Z,1.07
2018-07-16T13:20:52.534Z,1.07
2018-07-16T13:25:55.723Z,0.90
2018-07-16T13:30:58.999Z,0.80
2018-07-16T13:36:02.213Z,0.60
2018-07-16T13:41:05.359Z,0.90
2018-07-16T13:46:08.554Z,0.90
2018-07-16T13:51:11.686Z,0.73
2018-07-16T13:56:14.843Z,0.87
2018-07-16T14:01:18.074Z,0.90
2018-07-16T14:06:21.275Z,0.80
2018-07-16T14:11:24.454Z,0.43
2018-07-16T14:16:27.601Z,0.40
2018-07-16T14:21:30.738Z,0.70
2018-07-16T14:26:33.907Z,0.80
2018-07-16T14:31:37.040Z,0.50
2018-07-16T14:36:40.230Z,0.80
2018-07-16T14:41:43.392Z,0.87
2018-07-16T14:46:46.551Z,0.83
2018-07-16T14:51:49.683Z,0.70
2018-07-16T14:56:52.820Z,0.60
2018-07-16T15:01:56.042Z,0.70
2018-07-16T15:06:59.227Z,0.60
2018-07-16T15:12:02.390Z,0.80
2018-07-16T15:17:05.531Z,0.50
2018-07-16T15:22:08.650Z,0.50
2018-07-16T15:27:12.802Z,0.60
2018-07-16T15:32:15.922Z,0.70
2018-07-16T15:37:19.061Z,0.53
2018-07-16T15:42:22.209Z,0.53
2018-07-16T15:47:25.330Z,0.43
2018-07-16T15:52:28.454Z,0.50
2018-07-16T15:57:32.206Z,0.37
2018-07-16T16:02:35.375Z,0.53
2018-07-16T16:07:38.519Z,0.70
2018-07-16T16:12:41.638Z,0.70
2018-07-16T16:17:44.782Z,0.80
2018-07-16T16:22:49.950Z,0.53
2018-07-16T16:27:53.077Z,0.70
2018-07-16T16:32:56.280Z,0.90
2018-07-16T16:38:00.167Z,0.70
2018-07-16T16:43:03.306Z,0.80
2018-07-16T16:48:06.480Z,0.80
2018-07-16T16:53:10.650Z,0.90
2018-07-16T16:58:13.787Z,0.80
2018-07-16T17:03:17.138Z,1.00
2018-07-16T17:08:20.257Z,0.70
2018-07-16T17:13:23.897Z,0.70
2018-07-16T17:18:27.092Z,0.70
2018-07-16T17:23:30.244Z,0.87
2018-07-16T17:28:33.579Z,1.00
2018-07-16T17:33:36.691Z,0.60
2018-07-16T17:38:39.841Z,0.80
2018-07-16T17:43:43.710Z,0.77
2018-07-16T17:48:46.842Z,0.80
2018-07-16T17:53:50.218Z,0.93
2018-07-16T17:58:53.398Z,1.00
2018-07-16T18:03:56.535Z,0.60
2018-07-16T18:08:59.749Z,0.70
2018-07-16T18:14:02.941Z,0.90
2018-07-16T18:19:06.122Z,0.70
2018-07-16T18:24:09.354Z,0.97
2018-07-16T18:29:12.969Z,0.90
2018-07-16T18:34:16.110Z,3.57
2018-07-16T18:39:19.358Z,1.90
2018-07-16T18:44:22.693Z,1.20
2018-07-16T18:49:26.745Z,1.03
2018-07-16T18:54:29.789Z,0.70
2018-07-16T18:59:32.921Z,1.40
2018-07-16T19:04:36.054Z,1.00
2018-07-16T19:09:39.244Z,1.20
2018-07-16T19:14:42.370Z,1.40
2018-07-16T19:19:45.586Z,1.30
2018-07-16T19:24:48.730Z,2.37
2018-07-16T19:29:51.872Z,1.80
2018-07-16T19:34:54.980Z,1.43
2018-07-16T19:39:58.877Z,1.80
2018-07-16T19:45:01.821Z,1.30
2018-07-16T19:50:07.578Z,2.00
2018-07-16T19:55:10.930Z,1.87
2018-07-16T20:00:14.340Z,1.67
2018-07-16T20:05:17.494Z,1.87
2018-07-16T20:10:20.699Z,1.63
2018-07-16T20:15:23.842Z,1.93
2018-07-16T20:20:27.086Z,1.90
2018-07-16T20:25:30.120Z,1.90
2018-07-16T20:30:33.315Z,1.80
2018-07-16T20:35:36.797Z,2.10
2018-07-16T20:40:39.993Z,1.90
2018-07-16T20:45:43.238Z,2.33
2018-07-16T20:50:46.394Z,2.57
2018-07-16T20:55:49.529Z,2.47
2018-07-16T21:00:52.683Z,2.70
2018-07-16T21:05:56.797Z,3.30
2018-07-16T21:11:00.445Z,2.97
2018-07-16T21:16:03.630Z,3.53
2018-07-16T21:21:06.788Z,3.60
2018-07-16T21:26:10.027Z,4.43
2018-07-16T21:31:13.154Z,3.50
2018-07-16T21:36:16.438Z,4.27
2018-07-16T21:41:19.567Z,3.70
2018-07-16T21:46:22.812Z,4.43
2018-07-16T21:51:25.890Z,3.77
2018-07-16T21:56:29.212Z,3.97
2018-07-16T22:01:32.370Z,4.10
2018-07-16T22:06:35.504Z,3.53
2018-07-16T22:11:38.706Z,4.20
2018-07-16T22:16:41.914Z,4.13
2018-07-16T22:21:45.083Z,3.73
2018-07-16T22:26:48.231Z,4.33
2018-07-16T22:31:51.686Z,3.60
2018-07-16T22:36:54.825Z,3.67
2018-07-16T22:41:57.961Z,3.20
2018-07-16T22:47:01.087Z,3.83
2018-07-16T22:52:04.292Z,3.37
2018-07-16T22:57:07.420Z,2.70
2018-07-16T23:02:11.149Z,3.50
2018-07-16T23:07:14.342Z,3.20
2018-07-16T23:12:17.513Z,3.10
2018-07-16T23:17:20.636Z,3.17
2018-07-16T23:22:23.786Z,2.70
2018-07-16T23:27:26.914Z,2.70
2018-07-16T23:32:30.071Z,2.90
2018-07-16T23:37:33.235Z,2.53
2018-07-16T23:42:36.350Z,2.60
2018-07-16T23:47:39.680Z,2.83
2018-07-16T23:52:43.466Z,2.80
2018-07-16T23:57:46.595Z,2.70
